Time;durP1;ratioP1;P1;durP2;ratioP2;P2;SDS_P1;SDS_P2;PMS_P1;PMS_P2;Temp;Humidity;BMP_temperature;BMP_pressure;BME280_temperature;BME280_humidity;BME280_pressure;Samples;Min_cycle;Max_cycle;Signal;HPM_P1;HPM_P2
2022/08/29 00:00:24;;;;;;;7.18;4.13;;;18.10;99.90;;;;;;5074551;28;20024;-71
2022/08/29 00:02:54;;;;;;;9.07;4.70;;;18.20;99.90;;;;;;5075340;28;20031;-72
2022/08/29 00:05:25;;;;;;;10.18;4.60;;;18.00;99.90;;;;;;5074701;28;20021;-72
2022/08/29 00:07:53;;;;;;;7.80;4.45;;;17.90;99.90;;;;;;5073167;28;20025;-70
2022/08/29 00:10:20;;;;;;;6.30;4.20;;;17.90;99.90;;;;;;5074115;28;20043;-69
2022/08/29 00:12:48;;;;;;;8.57;4.40;;;18.30;99.90;;;;;;5074125;28;20108;-69
2022/08/29 00:15:17;;;;;;;7.35;3.90;;;18.40;99.90;;;;;;5072839;28;20056;-71
2022/08/29 00:17:44;;;;;;;6.25;4.50;;;18.50;99.90;;;;;;5074230;28;20024;-71
2022/08/29 00:20:16;;;;;;;9.25;4.70;;;18.70;99.90;;;;;;5074361;28;20024;-72
2022/08/29 00:22:43;;;;;;;8.05;4.28;;;19.00;99.90;;;;;;5074297;28;20051;-72
2022/08/29 00:25:13;;;;;;;8.25;4.40;;;19.30;99.90;;;;;;5074700;28;20025;-72
2022/08/29 00:27:41;;;;;;;6.07;3.53;;;19.40;99.90;;;;;;5073134;28;20020;-72
2022/08/29 00:30:09;;;;;;;5.22;2.78;;;19.60;99.90;;;;;;5073301;28;20031;-74
2022/08/29 00:32:37;;;;;;;3.92;1.98;;;19.60;99.90;;;;;;5073355;28;20029;-71
2022/08/29 00:35:11;;;;;;;1.73;0.90;;;19.50;99.90;;;;;;5072886;28;20028;-72
2022/08/29 00:37:39;;;;;;;1.73;0.80;;;19.70;99.90;;;;;;5072417;28;20082;-69
2022/08/29 00:40:12;;;;;;;1.23;0.80;;;19.80;99.90;;;;;;5072323;28;20491;-71
2022/08/29 00:42:40;;;;;;;1.55;1.08;;;20.10;99.90;;;;;;5072113;28;20020;-72
2022/08/29 00:45:09;;;;;;;1.45;0.70;;;20.10;99.90;;;;;;5072481;28;20020;-72
2022/08/29 00:47:40;;;;;;;1.52;0.60;;;20.20;99.90;;;;;;5072323;28;20119;-70
2022/08/29 00:50:12;;;;;;;1.42;1.00;;;20.30;99.90;;;;;;5073649;28;20028;-70
2022/08/29 00:52:43;;;;;;;2.78;0.80;;;20.40;99.90;;;;;;5073593;28;20044;-69
2022/08/29 00:55:14;;;;;;;1.35;0.80;;;20.30;99.90;;;;;;5072271;28;20029;-70
2022/08/29 00:57:47;;;;;;;0.85;0.70;;;20.40;99.90;;;;;;5074296;28;20047;-72
2022/08/29 01:00:17;;;;;;;1.55;0.80;;;20.40;99.90;;;;;;5073581;28;20056;-72
2022/08/29 01:02:46;;;;;;;1.97;0.80;;;20.20;99.90;;;;;;5072168;28;20025;-71
2022/08/29 01:05:16;;;;;;;2.03;1.00;;;20.10;99.90;;;;;;5073535;28;20058;-70
2022/08/29 01:07:44;;;;;;;1.13;0.70;;;20.00;99.90;;;;;;5072297;28;20458;-71
2022/08/29 01:12:14;;;;;;;2.75;0.95;;;20.00;99.90;;;;;;5072281;28;20515;-70
2022/08/29 01:12:59;;;;;;;2.13;0.80;;;20.00;99.90;;;;;;5073146;28;20036;-69
2022/08/29 01:15:29;;;;;;;1.67;0.80;;;20.10;99.90;;;;;;5072240;28;20388;-72
2022/08/29 01:17:58;;;;;;;5.23;1.10;;;20.10;99.90;;;;;;5072860;28;20020;-71
2022/08/29 01:20:40;;;;;;;2.55;1.05;;;20.00;99.90;;;;;;5073303;28;20498;-71
2022/08/29 01:23:16;;;;;;;2.40;1.00;;;20.30;99.90;;;;;;5072305;28;20021;-71
2022/08/29 01:25:50;;;;;;;1.02;0.77;;;20.20;99.90;;;;;;5073502;28;20503;-72
2022/08/29 01:28:20;;;;;;;3.65;0.98;;;20.40;99.90;;;;;;5072081;28;20060;-70
2022/08/29 01:31:19;;;;;;;2.50;0.80;;;20.60;99.90;;;;;;5073584;28;20129;-71
2022/08/29 01:33:50;;;;;;;6.65;1.10;;;20.30;99.90;;;;;;5060489;28;20265;-72
2022/08/29 01:36:27;;;;;;;4.63;1.00;;;20.10;99.90;;;;;;5072195;28;20086;-71
2022/08/29 01:38:54;;;;;;;3.50;1.00;;;20.00;99.90;;;;;;5073493;28;20017;-72
2022/08/29 01:41:22;;;;;;;2.42;0.85;;;20.00;99.90;;;;;;5071868;28;20048;-71
2022/08/29 01:43:52;;;;;;;5.13;1.10;;;19.90;99.90;;;;;;5073511;28;20020;-70
2022/08/29 01:46:25;;;;;;;2.35;0.77;;;19.90;99.90;;;;;;5071898;28;20025;-71
2022/08/29 01:48:53;;;;;;;4.05;0.95;;;20.20;99.90;;;;;;5073226;28;20105;-71
2022/08/29 01:51:23;;;;;;;2.65;0.93;;;20.40;99.90;;;;;;5073393;28;20028;-72
2022/08/29 01:53:51;;;;;;;2.88;1.00;;;20.20;99.90;;;;;;5073338;28;20074;-72
2022/08/29 01:56:21;;;;;;;1.40;0.70;;;20.40;99.90;;;;;;5071701;28;20112;-71
2022/08/29 01:58:50;;;;;;;4.03;0.88;;;20.30;99.90;;;;;;5073220;28;20104;-72
2022/08/29 02:01:21;;;;;;;3.33;0.77;;;20.20;99.90;;;;;;5072212;28;20027;-72
2022/08/29 02:03:49;;;;;;;3.58;0.85;;;20.00;99.90;;;;;;5073713;28;20051;-72
2022/08/29 02:06:16;;;;;;;2.22;0.80;;;20.00;99.90;;;;;;5073756;28;20029;-73
2022/08/29 02:08:45;;;;;;;3.17;0.63;;;19.90;99.90;;;;;;5071871;28;20127;-71
2022/08/29 02:11:15;;;;;;;1.40;0.63;;;19.80;99.90;;;;;;5072080;28;20369;-71
2022/08/29 02:13:47;;;;;;;3.97;0.83;;;19.90;99.90;;;;;;5073332;28;20024;-70
2022/08/29 02:16:17;;;;;;;2.95;0.50;;;19.70;99.90;;;;;;5071953;28;20037;-73
2022/08/29 02:18:45;;;;;;;3.13;0.82;;;19.70;99.90;;;;;;5071768;28;20025;-72
2022/08/29 02:21:16;;;;;;;1.00;0.47;;;19.60;99.90;;;;;;5073296;28;20048;-72
2022/08/29 02:23:43;;;;;;;5.50;0.75;;;19.50;99.90;;;;;;5073557;28;20048;-73
2022/08/29 02:26:12;;;;;;;2.50;0.47;;;19.50;99.90;;;;;;5072309;28;20060;-74
2022/08/29 02:28:40;;;;;;;2.28;0.40;;;19.50;99.90;;;;;;5072386;28;20063;-72
2022/08/29 02:31:08;;;;;;;3.50;0.60;;;19.50;99.90;;;;;;5075524;28;20080;-72
2022/08/29 02:33:36;;;;;;;3.13;0.68;;;19.50;99.90;;;;;;5074694;28;20436;-74
2022/08/29 02:36:06;;;;;;;2.08;0.50;;;19.30;99.90;;;;;;5076901;28;20021;-75
2022/08/29 02:38:34;;;;;;;3.20;0.60;;;19.30;99.90;;;;;;5077267;28;20112;-75
2022/08/29 02:41:02;;;;;;;4.95;0.70;;;19.40;99.90;;;;;;5077340;28;20020;-74
2022/08/29 02:43:30;;;;;;;3.00;0.52;;;19.20;99.90;;;;;;5076894;28;20020;-73
2022/08/29 02:45:57;;;;;;;2.97;0.50;;;19.50;99.90;;;;;;5075354;28;20477;-74
2022/08/29 02:48:25;;;;;;;3.70;0.50;;;19.60;99.90;;;;;;5075551;28;20025;-74
2022/08/29 02:50:55;;;;;;;4.00;0.80;;;19.60;99.90;;;;;;5076352;28;20024;-73
2022/08/29 02:53:25;;;;;;;2.97;0.70;;;19.80;99.90;;;;;;5075855;28;20072;-75
2022/08/29 02:55:57;;;;;;;3.75;0.60;;;19.90;99.90;;;;;;5077588;28;20281;-76
2022/08/29 02:58:25;;;;;;;5.25;0.65;;;19.90;99.90;;;;;;5076171;28;20028;-73
2022/08/29 03:00:53;;;;;;;1.85;0.52;;;19.80;99.90;;;;;;5076718;28;20510;-73
2022/08/29 03:03:21;;;;;;;4.25;0.77;;;19.90;99.90;;;;;;5075132;28;20052;-72
2022/08/29 03:05:48;;;;;;;5.43;0.70;;;19.80;99.90;;;;;;5076113;28;20032;-74
2022/08/29 03:08:17;;;;;;;3.60;0.60;;;19.90;99.90;;;;;;5074828;28;20059;-72
2022/08/29 03:10:45;;;;;;;5.50;0.80;;;20.20;99.90;;;;;;5074465;28;20024;-74
2022/08/29 03:13:12;;;;;;;10.10;1.45;;;20.40;99.90;;;;;;5074695;28;20027;-74
2022/08/29 03:15:40;;;;;;;6.20;0.90;;;20.40;99.90;;;;;;5075912;28;20021;-74
2022/08/29 03:18:07;;;;;;;4.13;0.85;;;20.30;99.90;;;;;;5076154;28;20024;-74
2022/08/29 03:20:36;;;;;;;4.18;0.73;;;20.40;99.90;;;;;;5075181;28;20461;-74
2022/08/29 03:23:05;;;;;;;4.18;1.10;;;20.30;99.90;;;;;;5076291;28;20526;-74
2022/08/29 03:25:38;;;;;;;4.07;0.65;;;20.00;99.90;;;;;;5076033;28;20575;-74
2022/08/29 03:28:05;;;;;;;4.32;1.02;;;19.90;99.90;;;;;;5074780;28;20027;-74
2022/08/29 03:30:32;;;;;;;7.00;1.25;;;19.90;99.90;;;;;;5075145;28;20028;-74
2022/08/29 03:33:01;;;;;;;6.75;1.10;;;19.80;99.90;;;;;;5074543;28;20511;-74
2022/08/29 03:35:32;;;;;;;5.18;0.90;;;19.70;99.90;;;;;;5075489;28;20033;-73
2022/08/29 03:38:00;;;;;;;4.85;0.90;;;19.80;99.90;;;;;;5073191;28;20028;-74
2022/08/29 03:40:27;;;;;;;4.75;0.75;;;19.70;99.90;;;;;;5073893;28;20016;-74
2022/08/29 03:42:55;;;;;;;5.38;0.82;;;19.80;99.90;;;;;;5074140;28;20020;-74
2022/08/29 03:45:24;;;;;;;6.15;0.75;;;19.90;99.90;;;;;;5074042;28;20028;-74
2022/08/29 03:47:52;;;;;;;5.55;1.00;;;19.80;99.90;;;;;;5074230;28;20029;-73
2022/08/29 03:50:23;;;;;;;5.63;0.98;;;19.70;99.90;;;;;;5074382;28;20412;-75
2022/08/29 03:52:50;;;;;;;3.80;1.17;;;19.50;99.90;;;;;;5074312;28;20043;-75
2022/08/29 03:55:19;;;;;;;5.00;0.60;;;19.30;99.90;;;;;;5073885;28;20444;-74
2022/08/29 03:57:49;;;;;;;5.22;0.80;;;19.30;99.90;;;;;;5074956;28;20021;-75
2022/08/29 04:00:18;;;;;;;4.20;0.85;;;19.10;99.90;;;;;;5075441;28;20020;-75
2022/08/29 04:02:47;;;;;;;6.65;1.05;;;19.10;99.90;;;;;;5073659;28;20032;-74
2022/08/29 04:05:16;;;;;;;6.88;1.00;;;19.00;99.90;;;;;;5073482;28;20085;-75
2022/08/29 04:07:51;;;;;;;6.57;0.75;;;18.90;99.90;;;;;;5074679;28;20158;-75
2022/08/29 04:10:28;;;;;;;8.63;1.45;;;19.00;99.90;;;;;;5074694;28;20031;-75
2022/08/29 04:12:56;;;;;;;2.95;0.60;;;19.00;99.90;;;;;;5074717;28;20024;-75
2022/08/29 04:15:25;;;;;;;5.18;0.90;;;19.00;99.90;;;;;;5073650;28;20067;-75
2022/08/29 04:17:54;;;;;;;6.30;1.20;;;18.90;99.90;;;;;;5075119;28;20073;-74
2022/08/29 04:20:25;;;;;;;5.93;1.63;;;19.10;99.90;;;;;;5075518;28;20023;-75
2022/08/29 04:22:54;;;;;;;7.60;1.05;;;19.10;99.90;;;;;;5075034;28;20388;-75
2022/08/29 04:25:23;;;;;;;6.50;1.08;;;19.10;99.90;;;;;;5073310;28;20485;-76
2022/08/29 04:27:52;;;;;;;5.35;1.13;;;19.10;99.90;;;;;;5074558;28;20052;-75
2022/08/29 04:30:23;;;;;;;5.70;1.02;;;19.20;99.90;;;;;;5075380;28;20028;-74
2022/08/29 04:32:51;;;;;;;10.15;1.48;;;19.30;99.90;;;;;;5057193;28;20485;-75
2022/08/29 04:35:19;;;;;;;6.65;1.08;;;19.40;99.90;;;;;;5073144;28;20082;-75
2022/08/29 04:37:48;;;;;;;5.35;0.95;;;19.30;99.90;;;;;;5072984;28;20048;-76
2022/08/29 04:40:19;;;;;;;6.30;0.90;;;19.40;99.90;;;;;;5074077;28;20016;-75
2022/08/29 04:42:46;;;;;;;8.88;1.10;;;19.40;99.90;;;;;;5074491;28;20473;-75
2022/08/29 04:45:19;;;;;;;5.25;0.85;;;19.40;99.90;;;;;;5074601;28;20031;-75
2022/08/29 04:47:46;;;;;;;6.18;1.25;;;19.10;99.90;;;;;;5073382;28;20401;-75
2022/08/29 04:50:17;;;;;;;5.05;1.00;;;19.10;99.90;;;;;;5074788;28;20082;-75
2022/08/29 04:52:44;;;;;;;4.07;0.82;;;19.00;99.90;;;;;;5072062;28;20048;-76
2022/08/29 04:55:13;;;;;;;6.05;1.05;;;19.00;99.90;;;;;;5073292;28;20047;-75
2022/08/29 04:57:41;;;;;;;5.00;0.80;;;18.90;99.90;;;;;;5074109;28;20020;-75
2022/08/29 05:00:13;;;;;;;5.53;1.20;;;18.90;99.90;;;;;;5073223;28;20031;-74
2022/08/29 05:02:42;;;;;;;6.13;0.90;;;18.80;99.90;;;;;;5072627;28;20020;-75
2022/08/29 05:05:12;;;;;;;7.15;1.10;;;18.70;99.90;;;;;;5072883;28;20494;-74
2022/08/29 05:07:41;;;;;;;5.78;0.80;;;18.70;99.90;;;;;;5073862;28;20047;-74
2022/08/29 05:10:18;;;;;;;9.20;1.25;;;18.60;99.90;;;;;;5072682;28;20400;-75
2022/08/29 05:12:45;;;;;;;5.22;0.90;;;18.50;99.90;;;;;;5072639;28;20111;-75
2022/08/29 05:15:14;;;;;;;8.45;1.63;;;18.40;99.90;;;;;;5072477;28;20161;-75
2022/08/29 05:17:42;;;;;;;11.25;1.70;;;18.40;99.90;;;;;;5072544;28;20481;-74
2022/08/29 05:20:10;;;;;;;7.47;1.58;;;18.30;99.90;;;;;;5072694;28;20389;-75
2022/08/29 05:22:40;;;;;;;7.55;1.50;;;18.20;99.90;;;;;;5074133;28;20031;-74
2022/08/29 05:25:10;;;;;;;9.95;1.40;;;18.20;99.90;;;;;;5056211;28;20500;-74
2022/08/29 05:27:38;;;;;;;7.28;1.52;;;18.30;99.90;;;;;;5072683;28;20043;-75
2022/08/29 05:30:07;;;;;;;9.32;1.50;;;18.20;99.90;;;;;;5072542;28;20033;-75
2022/08/29 05:32:34;;;;;;;6.50;1.05;;;18.20;99.90;;;;;;5074219;28;20370;-76
2022/08/29 05:35:02;;;;;;;10.00;1.55;;;18.10;99.90;;;;;;5072300;28;20028;-75
2022/08/29 05:37:30;;;;;;;6.28;1.10;;;18.00;99.90;;;;;;5074152;28;20020;-75
2022/08/29 05:39:57;;;;;;;11.65;1.48;;;18.00;99.90;;;;;;5072296;28;20020;-77
2022/08/29 05:42:26;;;;;;;9.45;1.38;;;17.90;99.90;;;;;;5072903;28;20119;-77
2022/08/29 05:44:53;;;;;;;8.55;1.92;;;17.90;99.90;;;;;;5073123;28;20104;-77
2022/08/29 05:47:21;;;;;;;7.32;1.42;;;17.90;99.90;;;;;;5073841;28;20074;-78
2022/08/29 05:49:49;;;;;;;8.60;1.27;;;17.80;99.90;;;;;;5072502;28;20051;-76
2022/08/29 05:52:20;;;;;;;11.75;2.20;;;17.70;99.90;;;;;;5072230;28;20047;-77
2022/08/29 05:54:48;;;;;;;7.30;1.88;;;17.70;99.90;;;;;;5073912;28;20032;-75
2022/08/29 05:57:18;;;;;;;7.88;1.45;;;17.60;99.90;;;;;;5072543;28;20400;-77
2022/08/29 05:59:47;;;;;;;5.25;1.27;;;17.60;99.90;;;;;;5072373;28;20063;-77
2022/08/29 06:02:15;;;;;;;9.98;1.95;;;17.60;99.90;;;;;;5073927;28;20385;-76
2022/08/29 06:04:42;;;;;;;9.77;1.75;;;17.50;99.90;;;;;;5073992;28;20534;-73
2022/08/29 06:07:10;;;;;;;8.60;1.75;;;17.40;99.90;;;;;;5076055;28;20419;-78
2022/08/29 06:09:40;;;;;;;13.75;1.98;;;17.40;99.90;;;;;;5077213;28;20032;-78
2022/08/29 06:12:08;;;;;;;9.32;1.40;;;17.30;99.90;;;;;;5076140;28;20028;-76
2022/08/29 06:14:36;;;;;;;12.43;2.33;;;17.30;99.90;;;;;;5077231;28;20024;-78
2022/08/29 06:17:05;;;;;;;11.65;1.50;;;17.30;99.90;;;;;;5076144;28;20052;-76
2022/08/29 06:19:35;;;;;;;10.68;1.67;;;17.20;99.90;;;;;;5059577;28;20052;-77
2022/08/29 06:22:04;;;;;;;9.10;1.50;;;17.20;99.90;;;;;;5075844;28;20020;-77
2022/08/29 06:24:32;;;;;;;9.23;1.67;;;17.10;99.90;;;;;;5076805;28;20017;-76
2022/08/29 06:27:01;;;;;;;12.10;1.58;;;17.10;99.90;;;;;;5076015;28;20028;-75
2022/08/29 06:29:28;;;;;;;11.80;1.92;;;17.10;99.90;;;;;;5075520;28;20024;-75
2022/08/29 06:31:57;;;;;;;11.93;2.38;;;17.10;99.90;;;;;;5076702;28;20032;-74
2022/08/29 06:34:25;;;;;;;10.73;2.10;;;17.00;99.90;;;;;;5075484;28;20362;-75
2022/08/29 06:36:53;;;;;;;11.20;1.75;;;17.00;99.90;;;;;;5076614;28;20021;-75
2022/08/29 06:39:21;;;;;;;13.65;2.47;;;16.90;99.90;;;;;;5075502;28;20473;-74
2022/08/29 06:41:48;;;;;;;11.13;1.95;;;16.90;99.90;;;;;;5076616;28;20020;-80
2022/08/29 06:44:16;;;;;;;13.32;2.67;;;16.90;99.90;;;;;;5075321;28;20031;-76
2022/08/29 06:46:47;;;;;;;9.85;1.92;;;16.90;99.90;;;;;;5077013;28;20032;-76
2022/08/29 06:49:17;;;;;;;12.57;2.40;;;16.90;99.90;;;;;;5075800;28;20086;-76
2022/08/29 06:51:48;;;;;;;11.05;2.05;;;16.80;99.90;;;;;;5076559;28;20044;-75
2022/08/29 06:54:17;;;;;;;10.27;2.17;;;16.80;99.90;;;;;;5075001;28;20040;-76
2022/08/29 06:56:50;;;;;;;13.60;2.30;;;16.80;99.90;;;;;;5076128;28;20098;-77
2022/08/29 06:59:19;;;;;;;14.02;1.80;;;16.70;99.90;;;;;;5076840;28;20016;-77
2022/08/29 07:01:46;;;;;;;12.32;2.15;;;16.70;99.90;;;;;;5076710;28;20548;-76
2022/08/29 07:04:16;;;;;;;;;;;16.70;99.90;;;;;;5076925;28;20016;-77
2022/08/29 07:06:44;;;;;;;12.52;2.28;;;16.70;99.90;;;;;;5076632;28;20339;-78
2022/08/29 07:09:12;;;;;;;11.15;2.13;;;16.70;99.90;;;;;;5076286;28;20077;-75
2022/08/29 07:11:42;;;;;;;16.33;2.08;;;16.60;99.90;;;;;;5074699;28;20435;-74
2022/08/29 07:14:12;;;;;;;14.27;2.42;;;16.60;99.90;;;;;;5074899;28;20149;-75
2022/08/29 07:16:40;;;;;;;10.23;2.10;;;16.50;99.90;;;;;;5073495;28;20036;-76
2022/08/29 07:19:09;;;;;;;12.82;2.08;;;16.50;99.90;;;;;;5075907;28;20268;-76
2022/08/29 07:21:38;;;;;;;16.55;2.33;;;16.50;99.90;;;;;;5075972;28;20013;-76
2022/08/29 07:24:06;;;;;;;13.55;2.22;;;16.40;99.90;;;;;;5074353;28;20025;-75
2022/08/29 07:26:40;;;;;;;11.75;2.05;;;16.40;99.90;;;;;;5074607;28;20481;-76
2022/08/29 07:29:15;;;;;;;11.98;2.00;;;16.40;99.90;;;;;;5074356;28;20046;-76
2022/08/29 07:31:42;;;;;;;9.93;2.25;;;16.30;99.90;;;;;;5074459;28;20117;-74
2022/08/29 07:34:10;;;;;;;11.43;2.55;;;16.30;99.90;;;;;;5075800;28;20027;-75
2022/08/29 07:36:39;;;;;;;11.57;2.15;;;16.30;99.90;;;;;;5074321;28;20119;-76
2022/08/29 07:39:11;;;;;;;18.08;2.75;;;16.30;99.90;;;;;;5060059;28;20039;-77
2022/08/29 07:41:40;;;;;;;8.30;1.92;;;16.30;99.90;;;;;;5075097;28;20115;-76
2022/08/29 07:44:08;;;;;;;13.82;2.00;;;16.20;99.90;;;;;;5075659;28;20055;-76
2022/08/29 07:46:36;;;;;;;16.23;3.20;;;16.20;99.90;;;;;;5074130;28;20485;-76
2022/08/29 07:49:03;;;;;;;13.02;2.40;;;16.20;99.90;;;;;;5075912;28;20431;-76
2022/08/29 07:51:31;;;;;;;14.50;2.70;;;16.20;99.90;;;;;;5075374;28;20025;-75
2022/08/29 07:53:58;;;;;;;16.92;5.18;;;16.20;99.90;;;;;;5075348;28;20410;-75
2022/08/29 07:56:32;;;;;;;16.10;4.03;;;16.20;99.90;;;;;;5073571;28;20032;-75
2022/08/29 07:58:59;;;;;;;16.40;3.83;;;16.20;99.90;;;;;;5074348;28;20439;-76
2022/08/29 08:01:27;;;;;;;16.60;3.30;;;16.20;99.90;;;;;;5075155;28;20020;-76
2022/08/29 08:03:55;;;;;;;16.13;3.00;;;16.20;99.90;;;;;;5075343;28;20021;-76
2022/08/29 08:06:24;;;;;;;26.00;4.75;;;16.20;99.90;;;;;;5075161;28;20031;-76
2022/08/29 08:08:52;;;;;;;20.25;3.95;;;16.20;99.90;;;;;;5075281;28;20025;-76
2022/08/29 08:11:22;;;;;;;17.05;3.47;;;16.20;99.90;;;;;;5074460;28;20477;-76
2022/08/29 08:13:52;;;;;;;15.70;2.97;;;16.20;99.90;;;;;;5073520;28;20496;-75
2022/08/29 08:16:20;;;;;;;;;;;16.20;99.90;;;;;;5075259;28;20029;-77
2022/08/29 08:18:49;;;;;;;18.33;4.38;;;16.20;99.90;;;;;;5074917;28;19905;-76
2022/08/29 08:21:21;;;;;;;14.85;3.47;;;16.10;99.90;;;;;;5074229;28;20025;-76
2022/08/29 08:23:52;;;;;;;13.77;2.88;;;16.10;99.90;;;;;;5074911;28;20021;-77
2022/08/29 08:26:20;;;;;;;19.80;4.55;;;16.10;99.90;;;;;;5073350;28;20476;-76
2022/08/29 08:28:48;;;;;;;20.83;3.50;;;16.10;99.90;;;;;;5074491;28;20427;-76
2022/08/29 08:31:17;;;;;;;17.63;3.10;;;16.00;99.90;;;;;;5073763;28;20451;-75
2022/08/29 08:33:45;;;;;;;20.20;4.20;;;16.00;99.90;;;;;;5074414;28;20024;-75
2022/08/29 08:36:20;;;;;;;13.75;2.90;;;16.00;99.90;;;;;;5074399;28;20055;-76
2022/08/29 08:38:49;;;;;;;15.13;3.05;;;15.90;99.90;;;;;;5074723;28;20053;-76
2022/08/29 08:41:31;;;;;;;11.65;2.55;;;15.90;99.90;;;;;;5073647;28;20032;-77
2022/08/29 08:44:07;;;;;;;14.98;2.47;;;15.90;99.90;;;;;;5074746;28;20370;-80
2022/08/29 08:46:48;;;;;;;18.60;3.97;;;15.90;99.90;;;;;;5058059;28;20047;-77
2022/08/29 08:49:51;;;;;;;17.40;3.45;;;15.90;99.90;;;;;;5074830;28;20035;-78
2022/08/29 08:52:41;;;;;;;15.63;2.77;;;15.90;99.90;;;;;;5072737;28;20550;-76
2022/08/29 08:55:34;;;;;;;16.15;2.75;;;15.80;99.90;;;;;;5058533;28;20032;-76
2022/08/29 08:58:32;;;;;;;14.95;3.55;;;15.80;99.90;;;;;;5066354;28;20143;-75
2022/08/29 09:01:25;;;;;;;11.52;2.95;;;15.80;99.90;;;;;;5046702;28;20024;-76
2022/08/29 09:04:11;;;;;;;9.63;2.97;;;15.80;99.90;;;;;;5068044;28;20500;-76
2022/08/29 09:06:53;;;;;;;14.65;3.50;;;15.80;99.90;;;;;;5076308;28;20049;-77
2022/08/29 09:09:45;;;;;;;14.10;3.70;;;15.80;99.90;;;;;;5073466;28;20480;-78
2022/08/29 09:12:41;;;;;;;13.48;3.08;;;15.80;99.90;;;;;;5074037;28;20024;-77
2022/08/29 09:15:16;;;;;;;10.20;2.47;;;15.70;99.90;;;;;;5075732;28;20387;-78
2022/08/29 09:18:01;;;;;;;11.02;2.17;;;15.70;99.90;;;;;;5074382;28;20108;-76
2022/08/29 09:20:32;;;;;;;12.68;2.72;;;15.70;99.90;;;;;;5074226;28;20104;-78
2022/08/29 09:23:00;;;;;;;5.30;1.48;;;15.70;99.90;;;;;;5074230;28;20392;-79
2022/08/29 09:25:30;;;;;;;12.00;2.55;;;15.70;99.90;;;;;;5075676;28;20036;-78
2022/08/29 09:27:58;;;;;;;14.07;4.00;;;15.70;99.90;;;;;;5074878;28;20024;-78
2022/08/29 09:30:30;;;;;;;8.75;2.50;;;15.70;99.90;;;;;;5073414;28;20075;-79
2022/08/29 09:33:07;;;;;;;8.98;2.40;;;15.70;99.90;;;;;;5073302;28;20032;-76
2022/08/29 09:35:42;;;;;;;12.30;2.50;;;15.70;99.90;;;;;;5073906;28;20111;-76
2022/08/29 09:38:22;;;;;;;11.25;2.33;;;15.70;99.90;;;;;;5072289;28;20052;-77
2022/08/29 09:40:57;;;;;;;8.32;1.88;;;15.70;99.90;;;;;;5076317;28;20023;-77
2022/08/29 09:43:40;;;;;;;8.63;1.85;;;15.70;99.90;;;;;;5078423;28;20075;-75
2022/08/29 09:46:10;;;;;;;11.25;2.08;;;15.70;99.90;;;;;;5076953;28;20025;-77
2022/08/29 09:49:01;;;;;;;6.50;2.13;;;15.70;99.90;;;;;;5076730;28;20029;-76
2022/08/29 09:51:37;;;;;;;7.25;2.28;;;15.70;99.90;;;;;;5075464;28;20100;-77
2022/08/29 09:54:25;;;;;;;6.25;1.58;;;15.70;99.90;;;;;;5076682;28;20108;-77
2022/08/29 09:57:25;;;;;;;8.02;1.90;;;15.60;99.90;;;;;;5079251;28;20024;-79
2022/08/29 10:00:15;;;;;;;10.95;2.40;;;15.60;99.90;;;;;;5077579;28;20032;-79
2022/08/29 10:02:43;;;;;;;10.55;2.40;;;15.60;99.90;;;;;;5077637;28;20020;-77
2022/08/29 10:05:26;;;;;;;7.38;2.72;;;15.60;99.90;;;;;;5079557;28;20020;-77
2022/08/29 10:07:54;;;;;;;12.63;3.25;;;15.60;99.90;;;;;;5077607;28;20393;-78
2022/08/29 10:10:25;;;;;;;14.07;3.25;;;15.60;99.90;;;;;;5076625;28;20430;-75
2022/08/29 10:13:21;;;;;;;9.93;3.10;;;15.60;99.90;;;;;;5077675;28;20029;-74
2022/08/29 10:16:27;;;;;;;8.10;3.38;;;15.60;99.90;;;;;;5077457;28;20071;-76
2022/08/29 10:19:05;;;;;;;9.43;3.47;;;15.60;99.90;;;;;;5077039;28;20054;-75
2022/08/29 10:21:53;;;;;;;7.57;3.20;;;15.60;99.90;;;;;;5059204;28;20020;-75
2022/08/29 10:24:52;;;;;;;10.60;4.00;;;15.60;99.90;;;;;;5077134;28;20096;-75
2022/08/29 10:27:57;;;;;;;8.57;3.70;;;15.60;99.90;;;;;;5075723;28;20020;-73
2022/08/29 10:30:40;;;;;;;10.82;4.13;;;15.60;99.90;;;;;;5046449;28;20082;-75
2022/08/29 10:33:37;;;;;;;8.32;3.80;;;15.60;99.90;;;;;;5077304;28;20472;-75
2022/08/29 10:36:33;;;;;;;9.90;4.57;;;15.60;99.90;;;;;;5075787;28;20489;-75
2022/08/29 10:39:12;;;;;;;10.25;5.15;;;15.50;99.90;;;;;;5077408;28;20021;-75
2022/08/29 10:41:54;;;;;;;10.50;5.03;;;15.60;99.90;;;;;;5077710;28;20409;-76
2022/08/29 10:44:21;;;;;;;11.80;5.88;;;15.60;99.90;;;;;;5078313;28;20097;-76
2022/08/29 10:47:07;;;;;;;12.73;5.75;;;15.60;99.90;;;;;;5075442;28;20024;-77
2022/08/29 10:49:43;;;;;;;7.75;5.18;;;15.60;99.90;;;;;;5075542;28;20027;-77
2022/08/29 10:52:35;;;;;;;11.23;5.20;;;15.60;99.90;;;;;;5074124;28;20052;-77
2022/08/29 10:55:18;;;;;;;8.18;5.53;;;15.60;99.90;;;;;;5078754;28;20083;-77
2022/08/29 10:58:17;;;;;;;8.75;5.38;;;15.70;99.90;;;;;;5076603;28;20028;-76
2022/08/29 11:00:53;;;;;;;10.43;4.85;;;15.70;99.90;;;;;;5075161;28;20384;-76
2022/08/29 11:03:34;;;;;;;6.28;4.93;;;15.70;99.90;;;;;;5074774;28;20365;-76
2022/08/29 11:06:21;;;;;;;11.57;5.10;;;15.70;99.90;;;;;;5075967;28;20031;-76
2022/08/29 11:09:13;;;;;;;10.18;4.90;;;15.70;99.90;;;;;;5075439;28;20020;-76
2022/08/29 11:12:01;;;;;;;9.02;5.47;;;15.70;99.90;;;;;;5076370;28;20025;-76
2022/08/29 11:14:38;;;;;;;10.20;4.90;;;15.70;99.90;;;;;;5076945;28;20055;-75
2022/08/29 11:17:09;;;;;;;7.40;4.05;;;15.70;99.90;;;;;;5077290;28;20037;-77
2022/08/29 11:20:02;;;;;;;9.10;4.40;;;15.70;99.90;;;;;;5076759;28;20480;-75
2022/08/29 11:22:40;;;;;;;10.15;4.63;;;15.70;99.90;;;;;;5075577;28;20082;-74
2022/08/29 11:25:26;;;;;;;8.70;4.57;;;15.70;99.90;;;;;;5077237;28;20411;-76
2022/08/29 11:28:15;;;;;;;9.82;4.75;;;15.70;99.90;;;;;;5076943;28;20032;-76
2022/08/29 11:30:45;;;;;;;9.35;4.25;;;15.60;99.90;;;;;;5075100;28;20025;-76
2022/08/29 11:33:28;;;;;;;9.07;4.75;;;15.60;99.90;;;;;;5075230;28;20025;-76
2022/08/29 11:36:10;;;;;;;8.57;5.07;;;15.50;99.90;;;;;;5074801;28;20075;-76
2022/08/29 11:38:37;;;;;;;8.07;3.67;;;15.50;99.90;;;;;;5075124;28;20024;-77
2022/08/29 11:41:07;;;;;;;8.23;3.95;;;15.50;99.90;;;;;;5076215;28;20025;-76
2022/08/29 11:43:43;;;;;;;6.57;3.90;;;15.40;99.90;;;;;;5074883;28;20078;-76
2022/08/29 11:46:12;;;;;;;6.70;4.07;;;15.40;99.90;;;;;;5075046;28;20115;-75
2022/08/29 11:48:40;;;;;;;5.82;3.25;;;15.30;99.90;;;;;;5076306;28;20036;-76
2022/08/29 11:51:30;;;;;;;8.90;3.95;;;15.30;99.90;;;;;;5074806;28;20025;-76
2022/08/29 11:54:23;;;;;;;6.15;3.50;;;15.30;99.90;;;;;;5075541;28;20108;-77
2022/08/29 11:57:16;;;;;;;10.05;3.97;;;15.30;99.90;;;;;;5076063;28;20094;-76
2022/08/29 11:59:50;;;;;;;5.50;3.65;;;15.20;99.90;;;;;;5051513;28;20511;-76
2022/08/29 12:02:30;;;;;;;6.30;3.80;;;15.20;99.90;;;;;;5074545;28;20021;-76
2022/08/29 12:04:58;;;;;;;8.18;3.92;;;15.20;99.90;;;;;;5074707;28;20074;-76
2022/08/29 12:07:49;;;;;;;6.55;3.42;;;15.20;99.90;;;;;;5074501;28;20514;-76
2022/08/29 12:10:22;;;;;;;5.13;3.17;;;15.20;99.90;;;;;;5074618;28;20020;-76
2022/08/29 12:12:59;;;;;;;8.52;3.28;;;15.10;99.90;;;;;;5075490;28;20047;-76
2022/08/29 12:15:32;;;;;;;5.35;3.55;;;15.10;99.90;;;;;;5075648;28;20028;-76
2022/08/29 12:18:11;;;;;;;6.50;3.20;;;15.00;99.90;;;;;;5074538;28;20028;-74
2022/08/29 12:20:52;;;;;;;6.43;3.50;;;15.00;99.90;;;;;;5074589;28;20033;-78
2022/08/29 12:23:19;;;;;;;;;;;14.90;99.90;;;;;;5074802;28;20025;-78
2022/08/29 12:25:52;;;;;;;5.82;2.90;;;15.00;99.90;;;;;;5075118;28;19954;-78
2022/08/29 12:28:32;;;;;;;6.03;3.95;;;14.90;99.90;;;;;;5074000;28;20024;-79
2022/08/29 12:31:00;;;;;;;4.38;3.20;;;14.90;99.90;;;;;;5073954;28;20024;-77
2022/08/29 12:33:49;;;;;;;4.95;3.00;;;14.90;99.90;;;;;;5073576;28;20063;-76
2022/08/29 12:36:42;;;;;;;5.72;3.03;;;14.80;99.90;;;;;;5073441;28;20506;-76
2022/08/29 12:39:31;;;;;;;6.10;3.30;;;14.80;99.90;;;;;;5074343;28;20016;-76
2022/08/29 12:42:28;;;;;;;6.93;3.28;;;14.70;99.90;;;;;;5072676;28;20017;-77
2022/08/29 12:45:03;;;;;;;7.78;3.90;;;14.80;99.90;;;;;;5073465;28;20028;-77
2022/08/29 12:47:50;;;;;;;4.93;3.17;;;14.80;99.90;;;;;;5073248;28;20028;-76
2022/08/29 12:50:27;;;;;;;6.10;3.85;;;14.70;99.90;;;;;;5073752;28;20054;-77
2022/08/29 12:53:22;;;;;;;6.70;3.00;;;14.70;99.90;;;;;;5073161;28;20108;-75
2022/08/29 12:55:58;;;;;;;5.93;2.95;;;14.60;99.90;;;;;;5074710;28;20467;-76
2022/08/29 12:58:36;;;;;;;6.07;2.90;;;14.60;99.90;;;;;;5073449;28;20029;-76
2022/08/29 13:01:07;;;;;;;3.97;3.08;;;14.60;99.90;;;;;;5074737;28;20024;-77
2022/08/29 13:03:35;;;;;;;;;;;14.60;99.90;;;;;;5073778;28;20035;-77
2022/08/29 13:06:07;;;;;;;3.05;2.70;;;14.60;99.90;;;;;;5074239;28;19950;-77
2022/08/29 13:08:39;;;;;;;4.75;3.47;;;14.60;99.90;;;;;;5074708;28;20055;-76
2022/08/29 13:11:11;;;;;;;4.85;3.05;;;14.50;99.90;;;;;;5074452;28;20024;-75
2022/08/29 13:13:39;;;;;;;4.05;2.80;;;14.60;99.90;;;;;;5072303;28;20025;-76
2022/08/29 13:16:21;;;;;;;3.83;2.42;;;14.60;99.90;;;;;;5072943;28;20028;-75